カーブル の空港の天気 - METARとTAF

カーブル国際空港 ( OAKB / KBL ) - アフガニスタン カーブル
飛行場実況気象(Metar)
観測時間01/20 22:20 AFT (01/20 17:50 UTC)
風向・風速北北西 3m/s
視程1600m
天気現象
全天の4割程度の雲 雲底高度 2440m
気温-2℃
湿度74%
気圧1028hPa
METAROAKB 201750Z 34005KT 1600 FU SCT080 M02/M06 Q1028 NOSIG RMK YLO YLO
過去の天気等 Google飛行場航空写真 Wunderground天気予報

過去48時間のMETAR

飛行場予報(TAF)
発表時間: 1/20 21:35 AFT (1/20 17:05 UTC)
予報対象時間: 20日22時 AFT ~ 21日22時 AFT
風向・風速不定 1m/s
視程3,000m
天気現象
全天の4割程度の雲 雲底高度 3,350m
21日3時 AFT ~ 21日5時 AFT に徐々に
視程5,000m
全天の8割程度の雲 雲底高度 3,050m
21日8時 AFT ~ 21日11時 AFT に一時的に
視程3,000m
天気現象煙霧
21日11時 AFT ~ 21日13時 AFT に徐々に
視程8,000m
21日18時 AFT ~ 21日20時 AFT に徐々に
視程4,500m
天気現象
TAF OAKB 201705Z 2018/2118 VRB02KT 3000 FU SCT110
BECMG 2023/2101 5000 BKN100
TEMPO 2104/2107 3000 HZ
BECMG 2107/2109 8000
BECMG 2114/2116 4500 FU